sensor_id;sensor_type;location;lat;lon;timestamp;P1;durP1;ratioP1;P2;durP2;ratioP2
74269;SDS011;62754;48.252;11.654;2022-12-20T00:02:10;31.83;;;15.30;;
74269;SDS011;62754;48.252;11.654;2022-12-20T00:04:36;32.67;;;17.20;;
74269;SDS011;62754;48.252;11.654;2022-12-20T00:07:02;29.30;;;14.60;;
74269;SDS011;62754;48.252;11.654;2022-12-20T00:09:28;29.70;;;15.27;;
74269;SDS011;62754;48.252;11.654;2022-12-20T00:11:53;32.20;;;15.80;;
74269;SDS011;62754;48.252;11.654;2022-12-20T00:14:19;32.75;;;15.45;;
74269;SDS011;62754;48.252;11.654;2022-12-20T00:16:45;30.35;;;14.68;;
74269;SDS011;62754;48.252;11.654;2022-12-20T00:19:11;34.58;;;16.92;;
74269;SDS011;62754;48.252;11.654;2022-12-20T00:21:36;26.35;;;13.88;;
74269;SDS011;62754;48.252;11.654;2022-12-20T00:24:03;33.08;;;16.42;;
74269;SDS011;62754;48.252;11.654;2022-12-20T00:26:31;30.48;;;15.18;;
74269;SDS011;62754;48.252;11.654;2022-12-20T00:28:58;27.92;;;15.15;;
74269;SDS011;62754;48.252;11.654;2022-12-20T00:31:25;30.38;;;15.35;;
74269;SDS011;62754;48.252;11.654;2022-12-20T00:33:53;31.15;;;14.73;;
74269;SDS011;62754;48.252;11.654;2022-12-20T00:36:20;27.48;;;14.60;;
74269;SDS011;62754;48.252;11.654;2022-12-20T00:38:47;30.20;;;15.60;;
74269;SDS011;62754;48.252;11.654;2022-12-20T00:43:41;30.45;;;14.63;;
74269;SDS011;62754;48.252;11.654;2022-12-20T00:46:07;28.00;;;14.40;;
74269;SDS011;62754;48.252;11.654;2022-12-20T00:48:35;30.55;;;14.32;;
74269;SDS011;62754;48.252;11.654;2022-12-20T00:51:08;30.77;;;15.10;;
74269;SDS011;62754;48.252;11.654;2022-12-20T00:53:39;27.83;;;13.52;;
74269;SDS011;62754;48.252;11.654;2022-12-20T00:56:06;29.13;;;14.98;;
74269;SDS011;62754;48.252;11.654;2022-12-20T00:58:33;31.23;;;15.27;;
74269;SDS011;62754;48.252;11.654;2022-12-20T01:01:03;29.13;;;14.35;;
74269;SDS011;62754;48.252;11.654;2022-12-20T01:03:30;27.58;;;14.45;;
74269;SDS011;62754;48.252;11.654;2022-12-20T01:05:59;31.85;;;15.77;;
74269;SDS011;62754;48.252;11.654;2022-12-20T01:08:27;30.17;;;15.02;;
74269;SDS011;62754;48.252;11.654;2022-12-20T01:10:58;25.60;;;13.32;;
74269;SDS011;62754;48.252;11.654;2022-12-20T01:13:28;28.17;;;14.57;;
74269;SDS011;62754;48.252;11.654;2022-12-20T01:15:54;28.42;;;15.45;;
74269;SDS011;62754;48.252;11.654;2022-12-20T01:18:20;30.95;;;14.48;;
74269;SDS011;62754;48.252;11.654;2022-12-20T01:20:46;28.45;;;14.73;;
74269;SDS011;62754;48.252;11.654;2022-12-20T01:23:12;27.67;;;14.05;;
74269;SDS011;62754;48.252;11.654;2022-12-20T01:25:37;27.45;;;14.43;;
74269;SDS011;62754;48.252;11.654;2022-12-20T01:28:03;31.13;;;15.07;;
74269;SDS011;62754;48.252;11.654;2022-12-20T01:30:29;29.58;;;14.98;;
74269;SDS011;62754;48.252;11.654;2022-12-20T01:32:55;29.27;;;15.27;;
74269;SDS011;62754;48.252;11.654;2022-12-20T01:35:20;29.60;;;15.30;;
74269;SDS011;62754;48.252;11.654;2022-12-20T01:37:47;28.45;;;14.60;;
74269;SDS011;62754;48.252;11.654;2022-12-20T01:40:12;28.90;;;14.18;;
74269;SDS011;62754;48.252;11.654;2022-12-20T01:42:38;29.00;;;14.93;;
74269;SDS011;62754;48.252;11.654;2022-12-20T01:45:06;32.58;;;14.48;;
74269;SDS011;62754;48.252;11.654;2022-12-20T01:47:37;29.00;;;14.60;;
74269;SDS011;62754;48.252;11.654;2022-12-20T01:50:04;31.48;;;14.68;;
74269;SDS011;62754;48.252;11.654;2022-12-20T01:52:34;27.95;;;13.98;;
74269;SDS011;62754;48.252;11.654;2022-12-20T01:55:15;28.95;;;14.60;;
74269;SDS011;62754;48.252;11.654;2022-12-20T01:57:49;31.88;;;15.05;;
74269;SDS011;62754;48.252;11.654;2022-12-20T02:00:16;27.98;;;15.52;;
74269;SDS011;62754;48.252;11.654;2022-12-20T02:02:44;26.65;;;14.55;;
74269;SDS011;62754;48.252;11.654;2022-12-20T02:05:12;28.10;;;14.10;;
74269;SDS011;62754;48.252;11.654;2022-12-20T02:07:38;26.08;;;14.40;;
74269;SDS011;62754;48.252;11.654;2022-12-20T02:10:07;28.50;;;14.25;;
74269;SDS011;62754;48.252;11.654;2022-12-20T02:12:41;29.77;;;14.77;;
74269;SDS011;62754;48.252;11.654;2022-12-20T02:20:47;29.15;;;14.35;;
74269;SDS011;62754;48.252;11.654;2022-12-20T02:28:38;29.58;;;14.80;;
74269;SDS011;62754;48.252;11.654;2022-12-20T02:31:25;27.48;;;13.80;;
74269;SDS011;62754;48.252;11.654;2022-12-20T02:33:54;26.65;;;14.43;;
74269;SDS011;62754;48.252;11.654;2022-12-20T02:36:22;27.17;;;14.40;;
74269;SDS011;62754;48.252;11.654;2022-12-20T02:38:47;29.52;;;14.38;;
74269;SDS011;62754;48.252;11.654;2022-12-20T02:41:28;30.95;;;15.52;;
74269;SDS011;62754;48.252;11.654;2022-12-20T02:44:02;27.95;;;14.10;;
74269;SDS011;62754;48.252;11.654;2022-12-20T02:46:32;32.13;;;14.95;;
74269;SDS011;62754;48.252;11.654;2022-12-20T02:49:01;28.67;;;14.85;;
74269;SDS011;62754;48.252;11.654;2022-12-20T02:51:33;29.98;;;15.25;;
74269;SDS011;62754;48.252;11.654;2022-12-20T02:53:59;30.38;;;13.77;;
74269;SDS011;62754;48.252;11.654;2022-12-20T02:56:33;28.80;;;15.27;;
74269;SDS011;62754;48.252;11.654;2022-12-20T02:59:07;28.08;;;14.57;;
74269;SDS011;62754;48.252;11.654;2022-12-20T03:01:44;27.30;;;14.43;;
74269;SDS011;62754;48.252;11.654;2022-12-20T03:04:13;27.08;;;13.98;;
74269;SDS011;62754;48.252;11.654;2022-12-20T03:07:00;30.63;;;14.43;;
74269;SDS011;62754;48.252;11.654;2022-12-20T03:09:31;29.63;;;14.63;;
74269;SDS011;62754;48.252;11.654;2022-12-20T03:11:59;28.77;;;14.57;;
74269;SDS011;62754;48.252;11.654;2022-12-20T03:14:25;28.60;;;13.98;;
74269;SDS011;62754;48.252;11.654;2022-12-20T03:16:52;31.13;;;13.23;;
74269;SDS011;62754;48.252;11.654;2022-12-20T03:19:18;27.38;;;13.77;;
74269;SDS011;62754;48.252;11.654;2022-12-20T03:21:44;29.23;;;14.85;;
74269;SDS011;62754;48.252;11.654;2022-12-20T03:24:09;32.22;;;15.93;;
74269;SDS011;62754;48.252;11.654;2022-12-20T03:26:36;30.30;;;14.88;;
74269;SDS011;62754;48.252;11.654;2022-12-20T03:29:03;29.73;;;14.77;;
74269;SDS011;62754;48.252;11.654;2022-12-20T03:31:29;28.98;;;14.60;;
74269;SDS011;62754;48.252;11.654;2022-12-20T03:33:54;26.35;;;15.15;;
74269;SDS011;62754;48.252;11.654;2022-12-20T03:36:20;28.48;;;14.25;;
74269;SDS011;62754;48.252;11.654;2022-12-20T03:38:46;27.08;;;13.20;;
74269;SDS011;62754;48.252;11.654;2022-12-20T03:41:12;27.80;;;13.85;;
74269;SDS011;62754;48.252;11.654;2022-12-20T03:43:38;27.40;;;13.85;;
74269;SDS011;62754;48.252;11.654;2022-12-20T03:46:03;29.80;;;13.93;;
74269;SDS011;62754;48.252;11.654;2022-12-20T03:48:29;30.00;;;15.23;;
74269;SDS011;62754;48.252;11.654;2022-12-20T03:50:55;29.70;;;14.32;;
74269;SDS011;62754;48.252;11.654;2022-12-20T03:53:21;26.67;;;13.50;;
74269;SDS011;62754;48.252;11.654;2022-12-20T03:55:46;25.08;;;12.93;;
74269;SDS011;62754;48.252;11.654;2022-12-20T03:58:12;29.63;;;13.98;;
74269;SDS011;62754;48.252;11.654;2022-12-20T04:00:38;27.42;;;13.55;;
74269;SDS011;62754;48.252;11.654;2022-12-20T04:03:04;27.77;;;13.48;;
74269;SDS011;62754;48.252;11.654;2022-12-20T04:05:29;28.05;;;14.27;;
74269;SDS011;62754;48.252;11.654;2022-12-20T04:07:55;24.88;;;13.20;;
74269;SDS011;62754;48.252;11.654;2022-12-20T04:10:21;28.60;;;13.50;;
74269;SDS011;62754;48.252;11.654;2022-12-20T04:12:46;24.13;;;12.70;;
74269;SDS011;62754;48.252;11.654;2022-12-20T04:15:12;30.60;;;13.10;;
74269;SDS011;62754;48.252;11.654;2022-12-20T04:17:38;27.55;;;13.18;;
74269;SDS011;62754;48.252;11.654;2022-12-20T04:20:04;27.27;;;14.32;;
74269;SDS011;62754;48.252;11.654;2022-12-20T04:22:31;24.23;;;13.15;;
74269;SDS011;62754;48.252;11.654;2022-12-20T04:24:57;27.30;;;13.05;;
74269;SDS011;62754;48.252;11.654;2022-12-20T04:27:22;29.40;;;13.98;;
74269;SDS011;62754;48.252;11.654;2022-12-20T04:29:48;26.77;;;12.65;;
74269;SDS011;62754;48.252;11.654;2022-12-20T04:32:14;26.83;;;13.68;;
74269;SDS011;62754;48.252;11.654;2022-12-20T04:34:40;30.27;;;14.68;;
74269;SDS011;62754;48.252;11.654;2022-12-20T04:37:05;29.90;;;13.98;;
74269;SDS011;62754;48.252;11.654;2022-12-20T04:39:31;26.17;;;12.70;;
74269;SDS011;62754;48.252;11.654;2022-12-20T04:41:57;29.13;;;14.90;;
74269;SDS011;62754;48.252;11.654;2022-12-20T04:44:23;27.75;;;13.55;;
74269;SDS011;62754;48.252;11.654;2022-12-20T04:46:48;30.48;;;14.52;;
74269;SDS011;62754;48.252;11.654;2022-12-20T04:49:14;24.52;;;14.60;;
74269;SDS011;62754;48.252;11.654;2022-12-20T04:51:40;26.20;;;15.00;;
74269;SDS011;62754;48.252;11.654;2022-12-20T04:54:06;30.33;;;13.73;;
74269;SDS011;62754;48.252;11.654;2022-12-20T04:56:31;26.58;;;14.05;;
74269;SDS011;62754;48.252;11.654;2022-12-20T04:58:57;29.50;;;14.68;;
74269;SDS011;62754;48.252;11.654;2022-12-20T05:01:23;30.10;;;15.10;;
74269;SDS011;62754;48.252;11.654;2022-12-20T05:03:50;28.52;;;15.02;;
74269;SDS011;62754;48.252;11.654;2022-12-20T05:06:15;28.65;;;14.48;;
74269;SDS011;62754;48.252;11.654;2022-12-20T05:08:41;31.25;;;14.82;;
74269;SDS011;62754;48.252;11.654;2022-12-20T05:11:07;27.63;;;13.88;;
74269;SDS011;62754;48.252;11.654;2022-12-20T05:13:34;26.27;;;13.50;;
74269;SDS011;62754;48.252;11.654;2022-12-20T05:16:00;24.15;;;12.07;;
74269;SDS011;62754;48.252;11.654;2022-12-20T05:18:26;25.65;;;13.15;;
74269;SDS011;62754;48.252;11.654;2022-12-20T05:20:59;26.30;;;13.27;;
74269;SDS011;62754;48.252;11.654;2022-12-20T05:23:25;24.48;;;12.82;;
74269;SDS011;62754;48.252;11.654;2022-12-20T05:25:52;26.20;;;12.73;;
74269;SDS011;62754;48.252;11.654;2022-12-20T05:28:18;25.00;;;13.02;;
74269;SDS011;62754;48.252;11.654;2022-12-20T05:30:43;26.17;;;11.68;;
74269;SDS011;62754;48.252;11.654;2022-12-20T05:33:09;25.65;;;13.05;;
74269;SDS011;62754;48.252;11.654;2022-12-20T05:35:35;26.23;;;12.85;;
74269;SDS011;62754;48.252;11.654;2022-12-20T05:38:01;22.92;;;12.13;;
74269;SDS011;62754;48.252;11.654;2022-12-20T05:40:26;24.23;;;12.75;;
74269;SDS011;62754;48.252;11.654;2022-12-20T05:42:52;23.27;;;12.43;;
74269;SDS011;62754;48.252;11.654;2022-12-20T05:45:18;29.13;;;14.10;;
74269;SDS011;62754;48.252;11.654;2022-12-20T05:47:44;27.38;;;13.65;;
74269;SDS011;62754;48.252;11.654;2022-12-20T05:50:10;28.80;;;14.23;;
74269;SDS011;62754;48.252;11.654;2022-12-20T05:52:36;29.30;;;14.68;;
74269;SDS011;62754;48.252;11.654;2022-12-20T05:55:01;29.63;;;14.40;;
74269;SDS011;62754;48.252;11.654;2022-12-20T05:57:27;23.23;;;12.68;;
74269;SDS011;62754;48.252;11.654;2022-12-20T05:59:53;23.23;;;13.05;;
74269;SDS011;62754;48.252;11.654;2022-12-20T06:02:19;22.67;;;12.13;;
74269;SDS011;62754;48.252;11.654;2022-12-20T06:04:44;24.98;;;11.95;;
74269;SDS011;62754;48.252;11.654;2022-12-20T06:07:10;22.13;;;12.52;;
74269;SDS011;62754;48.252;11.654;2022-12-20T06:09:36;23.70;;;12.38;;
74269;SDS011;62754;48.252;11.654;2022-12-20T06:12:02;43.50;;;14.45;;
74269;SDS011;62754;48.252;11.654;2022-12-20T06:14:28;25.75;;;12.23;;
74269;SDS011;62754;48.252;11.654;2022-12-20T06:16:53;21.70;;;11.57;;
74269;SDS011;62754;48.252;11.654;2022-12-20T06:19:19;24.05;;;11.88;;
74269;SDS011;62754;48.252;11.654;2022-12-20T06:21:45;22.17;;;12.10;;
74269;SDS011;62754;48.252;11.654;2022-12-20T06:24:11;24.13;;;12.82;;
74269;SDS011;62754;48.252;11.654;2022-12-20T06:26:37;23.50;;;12.27;;
74269;SDS011;62754;48.252;11.654;2022-12-20T06:29:03;23.38;;;12.30;;
74269;SDS011;62754;48.252;11.654;2022-12-20T06:31:29;23.95;;;12.70;;
74269;SDS011;62754;48.252;11.654;2022-12-20T06:33:55;24.33;;;13.25;;
74269;SDS011;62754;48.252;11.654;2022-12-20T06:36:21;25.20;;;12.52;;
74269;SDS011;62754;48.252;11.654;2022-12-20T06:38:47;27.40;;;13.32;;
74269;SDS011;62754;48.252;11.654;2022-12-20T06:41:13;24.67;;;12.88;;
74269;SDS011;62754;48.252;11.654;2022-12-20T06:43:39;25.85;;;13.35;;
74269;SDS011;62754;48.252;11.654;2022-12-20T06:46:04;24.52;;;12.57;;
74269;SDS011;62754;48.252;11.654;2022-12-20T06:48:30;26.05;;;12.30;;
74269;SDS011;62754;48.252;11.654;2022-12-20T06:50:56;22.92;;;12.88;;
74269;SDS011;62754;48.252;11.654;2022-12-20T06:53:22;25.23;;;12.15;;
74269;SDS011;62754;48.252;11.654;2022-12-20T06:55:48;24.42;;;12.45;;
74269;SDS011;62754;48.252;11.654;2022-12-20T06:58:15;26.05;;;13.48;;
74269;SDS011;62754;48.252;11.654;2022-12-20T07:03:07;28.17;;;13.95;;
74269;SDS011;62754;48.252;11.654;2022-12-20T07:05:33;24.80;;;13.40;;
74269;SDS011;62754;48.252;11.654;2022-12-20T07:07:59;25.50;;;13.38;;
74269;SDS011;62754;48.252;11.654;2022-12-20T07:10:25;24.88;;;12.75;;
74269;SDS011;62754;48.252;11.654;2022-12-20T07:12:51;25.10;;;13.07;;
74269;SDS011;62754;48.252;11.654;2022-12-20T07:15:17;23.23;;;13.30;;
74269;SDS011;62754;48.252;11.654;2022-12-20T07:17:43;29.95;;;15.02;;
74269;SDS011;62754;48.252;11.654;2022-12-20T07:20:09;26.58;;;12.93;;
74269;SDS011;62754;48.252;11.654;2022-12-20T07:22:35;25.45;;;13.50;;
74269;SDS011;62754;48.252;11.654;2022-12-20T07:25:01;24.58;;;11.65;;
74269;SDS011;62754;48.252;11.654;2022-12-20T07:27:26;23.30;;;12.25;;
74269;SDS011;62754;48.252;11.654;2022-12-20T07:29:52;21.77;;;11.68;;
74269;SDS011;62754;48.252;11.654;2022-12-20T07:32:18;23.77;;;12.50;;
74269;SDS011;62754;48.252;11.654;2022-12-20T07:34:44;26.67;;;13.23;;
74269;SDS011;62754;48.252;11.654;2022-12-20T07:37:09;23.80;;;12.38;;
74269;SDS011;62754;48.252;11.654;2022-12-20T07:39:35;23.95;;;12.98;;
74269;SDS011;62754;48.252;11.654;2022-12-20T07:42:01;24.75;;;13.60;;
74269;SDS011;62754;48.252;11.654;2022-12-20T07:44:27;21.92;;;11.85;;
74269;SDS011;62754;48.252;11.654;2022-12-20T07:46:52;23.70;;;11.95;;
74269;SDS011;62754;48.252;11.654;2022-12-20T07:49:18;21.10;;;11.80;;
74269;SDS011;62754;48.252;11.654;2022-12-20T07:51:47;20.77;;;10.95;;
74269;SDS011;62754;48.252;11.654;2022-12-20T07:54:17;24.30;;;12.63;;
74269;SDS011;62754;48.252;11.654;2022-12-20T07:56:49;23.15;;;11.27;;
74269;SDS011;62754;48.252;11.654;2022-12-20T07:59:20;22.05;;;11.40;;
74269;SDS011;62754;48.252;11.654;2022-12-20T08:01:49;22.58;;;11.52;;
74269;SDS011;62754;48.252;11.654;2022-12-20T08:04:18;23.98;;;12.50;;
74269;SDS011;62754;48.252;11.654;2022-12-20T08:06:47;24.70;;;11.52;;
74269;SDS011;62754;48.252;11.654;2022-12-20T08:11:41;21.95;;;11.63;;
74269;SDS011;62754;48.252;11.654;2022-12-20T08:14:10;21.33;;;12.25;;
74269;SDS011;62754;48.252;11.654;2022-12-20T08:16:36;23.17;;;12.02;;
74269;SDS011;62754;48.252;11.654;2022-12-20T08:19:02;25.27;;;13.63;;
74269;SDS011;62754;48.252;11.654;2022-12-20T08:21:28;23.52;;;13.05;;
74269;SDS011;62754;48.252;11.654;2022-12-20T08:23:54;21.55;;;12.63;;
74269;SDS011;62754;48.252;11.654;2022-12-20T08:26:20;25.75;;;13.35;;
74269;SDS011;62754;48.252;11.654;2022-12-20T08:28:46;26.10;;;13.25;;
74269;SDS011;62754;48.252;11.654;2022-12-20T08:31:12;25.95;;;13.52;;
74269;SDS011;62754;48.252;11.654;2022-12-20T08:33:38;22.17;;;12.35;;
74269;SDS011;62754;48.252;11.654;2022-12-20T08:36:06;26.63;;;13.88;;
74269;SDS011;62754;48.252;11.654;2022-12-20T08:38:34;24.08;;;12.82;;
74269;SDS011;62754;48.252;11.654;2022-12-20T08:41:03;22.52;;;12.90;;
74269;SDS011;62754;48.252;11.654;2022-12-20T08:43:39;25.35;;;13.38;;
74269;SDS011;62754;48.252;11.654;2022-12-20T08:46:06;23.60;;;12.20;;
74269;SDS011;62754;48.252;11.654;2022-12-20T08:51:00;23.23;;;11.32;;
74269;SDS011;62754;48.252;11.654;2022-12-20T08:53:27;21.77;;;12.45;;
74269;SDS011;62754;48.252;11.654;2022-12-20T08:56:01;25.45;;;12.57;;
74269;SDS011;62754;48.252;11.654;2022-12-20T08:58:32;21.02;;;12.15;;
74269;SDS011;62754;48.252;11.654;2022-12-20T09:00:58;23.42;;;12.85;;
74269;SDS011;62754;48.252;11.654;2022-12-20T09:03:25;27.52;;;14.77;;
74269;SDS011;62754;48.252;11.654;2022-12-20T09:05:51;29.40;;;14.65;;
74269;SDS011;62754;48.252;11.654;2022-12-20T09:08:17;24.10;;;14.20;;
74269;SDS011;62754;48.252;11.654;2022-12-20T09:10:43;22.10;;;12.45;;
74269;SDS011;62754;48.252;11.654;2022-12-20T09:13:09;20.85;;;11.77;;
74269;SDS011;62754;48.252;11.654;2022-12-20T09:15:35;21.33;;;11.70;;
74269;SDS011;62754;48.252;11.654;2022-12-20T09:18:01;22.48;;;12.02;;
74269;SDS011;62754;48.252;11.654;2022-12-20T09:20:28;24.88;;;12.30;;
74269;SDS011;62754;48.252;11.654;2022-12-20T09:22:54;23.55;;;12.65;;
74269;SDS011;62754;48.252;11.654;2022-12-20T09:25:20;21.48;;;12.23;;
74269;SDS011;62754;48.252;11.654;2022-12-20T09:27:46;22.17;;;12.38;;
74269;SDS011;62754;48.252;11.654;2022-12-20T09:30:12;22.20;;;12.32;;
74269;SDS011;62754;48.252;11.654;2022-12-20T09:32:38;22.23;;;12.77;;
74269;SDS011;62754;48.252;11.654;2022-12-20T09:35:04;24.52;;;13.77;;
74269;SDS011;62754;48.252;11.654;2022-12-20T09:37:30;22.42;;;13.13;;
74269;SDS011;62754;48.252;11.654;2022-12-20T09:39:56;23.92;;;12.45;;
74269;SDS011;62754;48.252;11.654;2022-12-20T09:42:23;21.50;;;12.45;;
74269;SDS011;62754;48.252;11.654;2022-12-20T09:44:51;22.60;;;12.15;;
74269;SDS011;62754;48.252;11.654;2022-12-20T09:47:23;20.88;;;12.52;;
74269;SDS011;62754;48.252;11.654;2022-12-20T09:49:52;20.38;;;11.73;;
74269;SDS011;62754;48.252;11.654;2022-12-20T10:00:48;20.30;;;11.27;;
74269;SDS011;62754;48.252;11.654;2022-12-20T10:03:19;23.08;;;12.90;;
74269;SDS011;62754;48.252;11.654;2022-12-20T10:06:17;20.52;;;12.52;;
74269;SDS011;62754;48.252;11.654;2022-12-20T10:08:54;20.02;;;11.13;;
74269;SDS011;62754;48.252;11.654;2022-12-20T10:25:17;21.05;;;13.00;;
74269;SDS011;62754;48.252;11.654;2022-12-20T10:27:43;23.20;;;13.20;;
74269;SDS011;62754;48.252;11.654;2022-12-20T10:30:14;21.45;;;12.70;;
74269;SDS011;62754;48.252;11.654;2022-12-20T10:32:43;21.13;;;12.80;;
74269;SDS011;62754;48.252;11.654;2022-12-20T10:37:55;21.90;;;12.35;;
74269;SDS011;62754;48.252;11.654;2022-12-20T10:40:32;19.83;;;12.43;;
74269;SDS011;62754;48.252;11.654;2022-12-20T10:43:00;23.00;;;13.77;;
74269;SDS011;62754;48.252;11.654;2022-12-20T10:45:31;21.02;;;13.07;;
74269;SDS011;62754;48.252;11.654;2022-12-20T10:48:03;20.70;;;11.80;;
74269;SDS011;62754;48.252;11.654;2022-12-20T10:50:31;20.75;;;12.57;;
74269;SDS011;62754;48.252;11.654;2022-12-20T10:53:19;20.52;;;12.70;;
74269;SDS011;62754;48.252;11.654;2022-12-20T10:55:46;23.45;;;11.88;;
74269;SDS011;62754;48.252;11.654;2022-12-20T10:58:32;21.23;;;12.63;;
74269;SDS011;62754;48.252;11.654;2022-12-20T11:01:18;21.13;;;11.80;;
74269;SDS011;62754;48.252;11.654;2022-12-20T11:03:48;22.85;;;13.68;;
74269;SDS011;62754;48.252;11.654;2022-12-20T11:06:15;24.60;;;14.73;;
74269;SDS011;62754;48.252;11.654;2022-12-20T11:08:42;24.27;;;15.02;;
74269;SDS011;62754;48.252;11.654;2022-12-20T11:11:16;29.38;;;16.23;;
74269;SDS011;62754;48.252;11.654;2022-12-20T11:13:47;26.63;;;15.73;;
74269;SDS011;62754;48.252;11.654;2022-12-20T11:16:21;22.67;;;13.15;;
74269;SDS011;62754;48.252;11.654;2022-12-20T11:24:40;25.35;;;14.55;;
74269;SDS011;62754;48.252;11.654;2022-12-20T11:32:55;23.98;;;13.60;;
74269;SDS011;62754;48.252;11.654;2022-12-20T11:38:37;22.33;;;12.68;;
74269;SDS011;62754;48.252;11.654;2022-12-20T11:41:42;22.73;;;11.73;;
74269;SDS011;62754;48.252;11.654;2022-12-20T11:52:26;20.77;;;11.80;;
74269;SDS011;62754;48.252;11.654;2022-12-20T11:57:44;20.48;;;13.55;;
74269;SDS011;62754;48.252;11.654;2022-12-20T12:00:18;19.17;;;11.48;;
74269;SDS011;62754;48.252;11.654;2022-12-20T12:02:50;20.40;;;11.98;;
74269;SDS011;62754;48.252;11.654;2022-12-20T12:07:48;18.00;;;10.88;;
74269;SDS011;62754;48.252;11.654;2022-12-20T12:10:21;17.92;;;11.73;;
74269;SDS011;62754;48.252;11.654;2022-12-20T12:12:52;21.40;;;12.82;;
74269;SDS011;62754;48.252;11.654;2022-12-20T12:15:35;19.55;;;12.10;;
74269;SDS011;62754;48.252;11.654;2022-12-20T12:18:15;18.38;;;11.77;;
74269;SDS011;62754;48.252;11.654;2022-12-20T12:25:46;20.80;;;12.90;;
74269;SDS011;62754;48.252;11.654;2022-12-20T12:28:12;20.88;;;13.25;;
74269;SDS011;62754;48.252;11.654;2022-12-20T12:30:42;16.90;;;11.40;;
74269;SDS011;62754;48.252;11.654;2022-12-20T12:33:13;21.65;;;12.77;;
74269;SDS011;62754;48.252;11.654;2022-12-20T12:44:39;19.25;;;12.35;;
74269;SDS011;62754;48.252;11.654;2022-12-20T12:47:17;23.23;;;14.38;;
74269;SDS011;62754;48.252;11.654;2022-12-20T12:50:13;20.95;;;13.80;;
74269;SDS011;62754;48.252;11.654;2022-12-20T12:52:53;25.13;;;14.20;;
74269;SDS011;62754;48.252;11.654;2022-12-20T12:55:33;29.75;;;14.65;;
74269;SDS011;62754;48.252;11.654;2022-12-20T13:03:38;24.63;;;14.68;;
74269;SDS011;62754;48.252;11.654;2022-12-20T13:08:49;23.98;;;14.95;;
74269;SDS011;62754;48.252;11.654;2022-12-20T13:11:43;23.60;;;15.27;;
74269;SDS011;62754;48.252;11.654;2022-12-20T13:16:47;25.77;;;15.40;;
74269;SDS011;62754;48.252;11.654;2022-12-20T13:19:15;21.92;;;13.73;;
74269;SDS011;62754;48.252;11.654;2022-12-20T13:21:46;25.40;;;15.27;;
74269;SDS011;62754;48.252;11.654;2022-12-20T13:27:02;21.67;;;14.77;;
74269;SDS011;62754;48.252;11.654;2022-12-20T13:29:50;27.15;;;15.05;;
74269;SDS011;62754;48.252;11.654;2022-12-20T13:40:38;22.90;;;14.82;;
74269;SDS011;62754;48.252;11.654;2022-12-20T13:45:46;24.75;;;15.20;;
74269;SDS011;62754;48.252;11.654;2022-12-20T13:51:12;28.90;;;17.30;;
74269;SDS011;62754;48.252;11.654;2022-12-20T13:53:48;28.77;;;16.02;;
74269;SDS011;62754;48.252;11.654;2022-12-20T13:56:39;29.88;;;17.55;;
74269;SDS011;62754;48.252;11.654;2022-12-20T13:59:14;32.13;;;18.45;;
74269;SDS011;62754;48.252;11.654;2022-12-20T14:01:56;29.17;;;16.38;;
74269;SDS011;62754;48.252;11.654;2022-12-20T14:04:24;31.17;;;17.65;;
74269;SDS011;62754;48.252;11.654;2022-12-20T14:06:55;38.80;;;16.60;;
74269;SDS011;62754;48.252;11.654;2022-12-20T14:14:29;30.05;;;17.33;;
74269;SDS011;62754;48.252;11.654;2022-12-20T14:16:55;33.28;;;18.75;;
74269;SDS011;62754;48.252;11.654;2022-12-20T14:19:20;29.50;;;17.92;;
74269;SDS011;62754;48.252;11.654;2022-12-20T14:21:46;26.98;;;16.67;;
74269;SDS011;62754;48.252;11.654;2022-12-20T14:24:19;28.80;;;17.05;;
74269;SDS011;62754;48.252;11.654;2022-12-20T14:26:47;27.52;;;16.17;;
74269;SDS011;62754;48.252;11.654;2022-12-20T14:29:17;29.63;;;16.55;;
74269;SDS011;62754;48.252;11.654;2022-12-20T14:31:49;28.25;;;17.08;;
74269;SDS011;62754;48.252;11.654;2022-12-20T14:34:17;29.52;;;17.33;;
74269;SDS011;62754;48.252;11.654;2022-12-20T14:36:46;28.20;;;16.85;;
74269;SDS011;62754;48.252;11.654;2022-12-20T14:41:53;29.27;;;16.95;;
74269;SDS011;62754;48.252;11.654;2022-12-20T14:44:21;29.60;;;17.23;;
74269;SDS011;62754;48.252;11.654;2022-12-20T14:46:58;32.28;;;18.95;;
74269;SDS011;62754;48.252;11.654;2022-12-20T14:49:27;33.40;;;18.73;;
74269;SDS011;62754;48.252;11.654;2022-12-20T14:54:29;33.05;;;17.92;;
74269;SDS011;62754;48.252;11.654;2022-12-20T14:56:55;31.08;;;18.23;;
74269;SDS011;62754;48.252;11.654;2022-12-20T14:59:24;30.75;;;17.48;;
74269;SDS011;62754;48.252;11.654;2022-12-20T15:01:51;31.75;;;18.60;;
74269;SDS011;62754;48.252;11.654;2022-12-20T15:06:58;34.72;;;18.58;;
74269;SDS011;62754;48.252;11.654;2022-12-20T15:09:25;31.42;;;17.58;;
74269;SDS011;62754;48.252;11.654;2022-12-20T15:11:51;32.45;;;18.15;;
74269;SDS011;62754;48.252;11.654;2022-12-20T15:16:53;34.38;;;17.95;;
74269;SDS011;62754;48.252;11.654;2022-12-20T15:19:19;35.20;;;18.85;;
74269;SDS011;62754;48.252;11.654;2022-12-20T15:21:44;39.50;;;19.63;;
74269;SDS011;62754;48.252;11.654;2022-12-20T15:24:12;34.42;;;19.25;;
74269;SDS011;62754;48.252;11.654;2022-12-20T15:26:39;36.60;;;19.88;;
74269;SDS011;62754;48.252;11.654;2022-12-20T15:29:05;37.63;;;20.52;;
74269;SDS011;62754;48.252;11.654;2022-12-20T15:31:32;42.33;;;22.63;;
74269;SDS011;62754;48.252;11.654;2022-12-20T15:34:02;39.22;;;20.98;;
74269;SDS011;62754;48.252;11.654;2022-12-20T15:36:36;40.65;;;20.63;;
74269;SDS011;62754;48.252;11.654;2022-12-20T15:39:02;36.55;;;20.20;;
74269;SDS011;62754;48.252;11.654;2022-12-20T15:41:29;36.42;;;20.77;;
74269;SDS011;62754;48.252;11.654;2022-12-20T15:43:58;39.03;;;22.25;;
74269;SDS011;62754;48.252;11.654;2022-12-20T15:46:25;36.95;;;22.15;;
74269;SDS011;62754;48.252;11.654;2022-12-20T15:48:52;36.63;;;20.05;;
74269;SDS011;62754;48.252;11.654;2022-12-20T15:51:31;37.17;;;19.70;;
74269;SDS011;62754;48.252;11.654;2022-12-20T15:54:06;35.85;;;20.55;;
74269;SDS011;62754;48.252;11.654;2022-12-20T15:56:37;39.92;;;21.58;;
74269;SDS011;62754;48.252;11.654;2022-12-20T15:59:03;41.20;;;23.73;;
74269;SDS011;62754;48.252;11.654;2022-12-20T16:01:36;52.60;;;26.77;;
74269;SDS011;62754;48.252;11.654;2022-12-20T16:04:03;47.08;;;24.65;;
74269;SDS011;62754;48.252;11.654;2022-12-20T16:06:30;45.38;;;24.08;;
74269;SDS011;62754;48.252;11.654;2022-12-20T16:08:56;42.65;;;23.08;;
74269;SDS011;62754;48.252;11.654;2022-12-20T16:11:22;44.17;;;22.10;;
74269;SDS011;62754;48.252;11.654;2022-12-20T16:13:50;44.25;;;23.60;;
74269;SDS011;62754;48.252;11.654;2022-12-20T16:16:16;35.55;;;20.20;;
74269;SDS011;62754;48.252;11.654;2022-12-20T16:18:43;36.75;;;20.63;;
74269;SDS011;62754;48.252;11.654;2022-12-20T16:21:16;36.30;;;21.40;;
74269;SDS011;62754;48.252;11.654;2022-12-20T16:23:43;44.90;;;24.35;;
74269;SDS011;62754;48.252;11.654;2022-12-20T16:26:13;45.05;;;23.48;;
74269;SDS011;62754;48.252;11.654;2022-12-20T16:28:39;39.88;;;21.02;;